createdAt,value
2022-12-24T00:01:33.626Z,100737.44
2022-12-24T00:04:01.469Z,100740.88
2022-12-24T00:06:29.129Z,100739.16
2022-12-24T00:08:56.962Z,100736.56
2022-12-24T00:11:24.484Z,100733.91
2022-12-24T00:13:52.031Z,100734.78
2022-12-24T00:16:19.699Z,100737.56
2022-12-24T00:18:47.406Z,100732.28
2022-12-24T00:21:16.381Z,100728.00
2022-12-24T00:23:44.250Z,100722.72
2022-12-24T00:26:13.422Z,100725.53
2022-12-24T00:28:41.630Z,100717.59
2022-12-24T00:31:13.037Z,100718.44
2022-12-24T00:33:41.054Z,100715.81
2022-12-24T00:36:09.823Z,100717.59
2022-12-24T00:38:38.707Z,100718.38
2022-12-24T00:41:25.070Z,100715.69
2022-12-24T00:43:57.559Z,100707.16
2022-12-24T00:46:27.055Z,100709.78
2022-12-24T00:48:55.354Z,100706.19
2022-12-24T00:51:24.301Z,100701.88
2022-12-24T00:53:52.995Z,100704.50
2022-12-24T00:56:21.588Z,100697.28
2022-12-24T00:58:49.367Z,100705.34
2022-12-24T01:01:17.924Z,100697.69
2022-12-24T01:03:46.019Z,100692.34
2022-12-24T01:06:19.603Z,100703.81
2022-12-24T01:08:51.420Z,100695.03
2022-12-24T01:11:19.340Z,100693.16
2022-12-24T01:13:47.638Z,100697.69
2022-12-24T01:16:20.751Z,100689.94
2022-12-24T01:18:48.804Z,100695.78
2022-12-24T01:21:17.120Z,100682.06
2022-12-24T01:23:45.162Z,100695.03
2022-12-24T01:26:13.068Z,100685.59
2022-12-24T01:28:41.645Z,100696.88
2022-12-24T01:31:15.568Z,100685.59
2022-12-24T01:33:44.211Z,100695.97
2022-12-24T01:36:13.362Z,100693.34
2022-12-24T01:38:41.556Z,100690.91
2022-12-24T01:41:34.930Z,100694.38
2022-12-24T01:44:35.675Z,100693.47
2022-12-24T01:47:28.135Z,100706.44
2022-12-24T01:50:02.170Z,100703.81
2022-12-24T01:52:33.584Z,100706.44
2022-12-24T01:55:08.252Z,100691.59
2022-12-24T01:57:42.323Z,100697.19
2022-12-24T02:00:13.332Z,100699.69
2022-12-24T02:02:44.241Z,100694.31
2022-12-24T02:05:24.693Z,100701.41
2022-12-24T02:07:53.053Z,100695.22
2022-12-24T02:10:20.694Z,100697.78
2022-12-24T02:12:49.376Z,100696.94
2022-12-24T02:15:19.581Z,100687.31
2022-12-24T02:17:53.867Z,100692.75
2022-12-24T02:20:49.595Z,100693.03
2022-12-24T02:23:23.862Z,100698.84
2022-12-24T02:25:57.102Z,100702.06
2022-12-24T02:28:58.771Z,100704.75
2022-12-24T02:31:33.627Z,100697.84
2022-12-24T02:34:25.517Z,100708.16
2022-12-24T02:37:15.472Z,100690.84
2022-12-24T02:39:42.956Z,100707.03
2022-12-24T02:42:13.916Z,100710.41
2022-12-24T02:44:49.747Z,100709.59
2022-12-24T02:47:19.604Z,100710.25
2022-12-24T02:49:49.075Z,100715.38
2022-12-24T02:52:31.536Z,100718.06
2022-12-24T02:55:03.191Z,100718.38
2022-12-24T02:57:43.739Z,100712.97
2022-12-24T03:00:17.098Z,100712.28
2022-12-24T03:03:09.410Z,100720.28
2022-12-24T03:05:49.904Z,100715.16
2022-12-24T03:08:36.001Z,100717.97
2022-12-24T03:11:12.271Z,100713.69
2022-12-24T03:13:41.693Z,100708.53
2022-12-24T03:16:15.009Z,100703.66
2022-12-24T03:18:49.735Z,100704.56
2022-12-24T03:21:24.242Z,100697.50
2022-12-24T03:23:52.078Z,100695.78
2022-12-24T03:26:20.599Z,100703.59
2022-12-24T03:28:48.630Z,100705.38
2022-12-24T03:31:17.181Z,100717.16
2022-12-24T03:33:45.452Z,100709.31
2022-12-24T03:36:13.763Z,100708.44
2022-12-24T03:38:41.509Z,100712.91
2022-12-24T03:41:09.365Z,100715.53
2022-12-24T03:43:37.040Z,100721.59
2022-12-24T03:46:09.110Z,100713.69
2022-12-24T03:48:37.276Z,100710.94
2022-12-24T03:51:05.179Z,100708.63
2022-12-24T03:53:34.911Z,100710.94
2022-12-24T03:56:02.511Z,100717.53
2022-12-24T03:58:30.189Z,100707.72
2022-12-24T04:00:57.687Z,100706.63
2022-12-24T04:03:25.387Z,100699.84
2022-12-24T04:06:28.720Z,100694.41
2022-12-24T04:08:56.504Z,100696.81
2022-12-24T04:11:24.213Z,100700.53
2022-12-24T04:13:51.776Z,100708.47
2022-12-24T04:16:19.435Z,100704.88
2022-12-24T04:18:47.148Z,100704.84
2022-12-24T04:21:14.810Z,100696.28
2022-12-24T04:23:43.460Z,100693.66
2022-12-24T04:26:12.996Z,100697.44
2022-12-24T04:28:42.458Z,100687.94
2022-12-24T04:31:15.860Z,100695.47
2022-12-24T04:33:44.854Z,100701.41
2022-12-24T04:36:17.234Z,100707.41
2022-12-24T04:38:46.250Z,100708.75
2022-12-24T04:41:23.621Z,100704.44
2022-12-24T04:43:55.949Z,100698.66
2022-12-24T04:46:26.635Z,100710.38
2022-12-24T04:48:55.007Z,100701.59
2022-12-24T04:51:23.798Z,100705.22
2022-12-24T04:53:52.428Z,100712.06
2022-12-24T04:56:22.498Z,100719.72
2022-12-24T04:58:51.895Z,100725.81
2022-12-24T05:01:25.943Z,100724.06
2022-12-24T05:03:54.112Z,100718.75
2022-12-24T05:06:24.577Z,100718.94
2022-12-24T05:08:55.592Z,100719.84
2022-12-24T05:11:24.002Z,100710.16
2022-12-24T05:13:51.762Z,100712.53
2022-12-24T05:16:21.639Z,100713.38
2022-12-24T05:18:49.672Z,100710.28
2022-12-24T05:21:21.655Z,100715.78
2022-12-24T05:24:08.918Z,100720.16
2022-12-24T05:26:42.108Z,100725.28
2022-12-24T05:29:12.373Z,100721.13
2022-12-24T05:31:41.033Z,100728.19
2022-12-24T05:34:09.368Z,100719.25
2022-12-24T05:36:37.623Z,100717.59
2022-12-24T05:39:11.671Z,100723.22
2022-12-24T05:41:43.003Z,100720.06
2022-12-24T05:44:10.807Z,100725.22
2022-12-24T05:46:39.982Z,100733.84
2022-12-24T05:49:07.653Z,100740.66
2022-12-24T05:51:35.663Z,100742.44
2022-12-24T05:54:03.827Z,100739.59
2022-12-24T05:56:31.527Z,100737.41
2022-12-24T05:58:59.211Z,100738.19
2022-12-24T06:01:28.000Z,100732.13
2022-12-24T06:03:57.235Z,100733.69
2022-12-24T06:06:27.907Z,100733.25
2022-12-24T06:08:55.862Z,100739.91
2022-12-24T06:11:26.007Z,100739.19
2022-12-24T06:13:54.521Z,100748.13
2022-12-24T06:16:25.989Z,100751.53
2022-12-24T06:18:54.801Z,100755.75
2022-12-24T06:21:22.756Z,100755.56
2022-12-24T06:23:50.297Z,100764.03
2022-12-24T06:26:21.350Z,100772.13
2022-12-24T06:28:50.439Z,100765.75
2022-12-24T06:31:20.580Z,100758.69
2022-12-24T06:33:48.914Z,100763.91
2022-12-24T06:36:22.077Z,100759.72
2022-12-24T06:38:50.917Z,100762.16
2022-12-24T06:41:25.442Z,100749.88
2022-12-24T06:43:54.043Z,100747.41
2022-12-24T06:46:22.189Z,100746.59
2022-12-24T06:48:50.356Z,100744.59
2022-12-24T06:51:19.988Z,100734.38
2022-12-24T06:53:57.785Z,100741.53
2022-12-24T06:56:26.782Z,100746.00
2022-12-24T06:58:58.768Z,100742.44
2022-12-24T07:01:29.467Z,100744.66
2022-12-24T07:03:57.438Z,100740.56
2022-12-24T07:06:28.023Z,100742.88
2022-12-24T07:08:55.719Z,100739.84
2022-12-24T07:11:25.031Z,100733.91
2022-12-24T07:13:52.803Z,100733.28
2022-12-24T07:16:20.537Z,100733.13
2022-12-24T07:18:48.238Z,100739.34
2022-12-24T07:21:15.782Z,100738.81
2022-12-24T07:23:43.574Z,100741.53
2022-12-24T07:26:11.220Z,100743.44
2022-12-24T07:28:39.195Z,100745.19
2022-12-24T07:31:06.827Z,100744.28
2022-12-24T07:33:34.656Z,100742.44
2022-12-24T07:36:07.346Z,100739.06
2022-12-24T07:38:36.019Z,100738.28
2022-12-24T07:41:03.865Z,100738.25
2022-12-24T07:43:34.172Z,100739.91
2022-12-24T07:46:02.400Z,100743.16
2022-12-24T07:48:33.042Z,100733.69
2022-12-24T07:51:01.145Z,100740.63
2022-12-24T07:53:31.458Z,100738.00
2022-12-24T07:55:59.121Z,100737.16
2022-12-24T07:58:26.742Z,100728.25
2022-12-24T08:00:59.624Z,100744.78
2022-12-24T08:03:27.693Z,100730.69
2022-12-24T08:05:55.471Z,100731.53
2022-12-24T08:08:23.538Z,100729.78
2022-12-24T08:10:51.740Z,100738.25
2022-12-24T08:13:19.950Z,100742.53
2022-12-24T08:15:47.865Z,100729.31
2022-12-24T08:18:15.609Z,100744.03
2022-12-24T08:20:43.219Z,100735.13
2022-12-24T08:23:11.119Z,100736.44
2022-12-24T08:25:46.103Z,100736.03
2022-12-24T08:28:17.015Z,100726.28
2022-12-24T08:30:44.995Z,100729.66
2022-12-24T08:33:12.710Z,100725.03
2022-12-24T08:35:40.435Z,100728.25
2022-12-24T08:38:08.286Z,100731.38
2022-12-24T08:40:36.350Z,100735.56
2022-12-24T08:43:04.145Z,100727.41
2022-12-24T08:45:37.974Z,100714.28
2022-12-24T08:48:09.063Z,100714.09
2022-12-24T08:50:40.133Z,100707.69
2022-12-24T08:53:08.551Z,100711.59
2022-12-24T08:55:36.341Z,100713.47
2022-12-24T08:58:04.413Z,100698.53
2022-12-24T09:00:33.269Z,100696.13
2022-12-24T09:03:01.208Z,100703.94
2022-12-24T09:05:29.201Z,100706.63
2022-12-24T09:07:58.004Z,100704.00
2022-12-24T09:10:26.544Z,100685.19
2022-12-24T09:12:54.288Z,100689.31
2022-12-24T09:15:22.104Z,100698.66
2022-12-24T09:17:49.803Z,100702.72
2022-12-24T09:20:17.419Z,100710.28
2022-12-24T09:22:45.080Z,100699.31
2022-12-24T09:25:12.609Z,100695.06
2022-12-24T09:27:40.414Z,100702.84
2022-12-24T09:30:08.684Z,100691.91
2022-12-24T09:32:36.606Z,100691.91
2022-12-24T09:35:07.047Z,100691.22
2022-12-24T09:37:34.684Z,100700.75
2022-12-24T09:40:02.377Z,100710.34
2022-12-24T09:42:51.976Z,100705.34
2022-12-24T09:45:38.743Z,100700.34
2022-12-24T09:48:15.001Z,100700.38
2022-12-24T09:50:46.730Z,100701.25
2022-12-24T09:53:37.675Z,100701.88
2022-12-24T09:56:22.659Z,100693.38
2022-12-24T09:59:00.035Z,100694.19
2022-12-24T10:01:31.395Z,100693.72
2022-12-24T10:04:03.166Z,100692.88
2022-12-24T10:06:44.983Z,100686.97
2022-12-24T10:09:35.598Z,100685.13
2022-12-24T10:12:13.895Z,100678.94
2022-12-24T10:15:15.317Z,100678.59
2022-12-24T10:18:01.207Z,100678.31
2022-12-24T10:20:39.348Z,100676.66
2022-12-24T10:23:22.573Z,100670.34
2022-12-24T10:26:10.167Z,100662.28
2022-12-24T10:28:58.544Z,100655.81
2022-12-24T10:31:29.983Z,100658.16
2022-12-24T10:34:01.985Z,100661.47
2022-12-24T10:36:31.077Z,100666.72
2022-12-24T10:38:59.696Z,100670.84
2022-12-24T10:41:28.672Z,100670.13
2022-12-24T10:43:57.647Z,100672.69
2022-12-24T10:46:37.948Z,100673.47
2022-12-24T10:49:12.724Z,100671.06
2022-12-24T10:52:12.779Z,100668.50
2022-12-24T10:55:11.124Z,100668.41
2022-12-24T10:57:40.665Z,100665.34
2022-12-24T11:00:20.320Z,100672.81
2022-12-24T11:02:50.086Z,100671.66
2022-12-24T11:05:35.366Z,100674.00
2022-12-24T11:08:17.914Z,100671.59
2022-12-24T11:11:01.068Z,100672.44
2022-12-24T11:13:39.097Z,100676.78
2022-12-24T11:16:17.518Z,100670.00
2022-12-24T11:18:54.139Z,100674.84
2022-12-24T11:21:21.658Z,100679.19
2022-12-24T11:23:58.693Z,100669.66
2022-12-24T11:26:29.549Z,100664.56
2022-12-24T11:29:07.260Z,100670.63
2022-12-24T11:31:37.596Z,100666.16
2022-12-24T11:34:31.803Z,100666.03
2022-12-24T11:37:22.569Z,100659.13
2022-12-24T11:39:53.127Z,100660.22
2022-12-24T11:42:39.205Z,100659.25
2022-12-24T11:45:15.965Z,100662.69
2022-12-24T11:47:43.696Z,100660.91
2022-12-24T11:50:20.494Z,100658.38
2022-12-24T11:52:52.686Z,100657.22
2022-12-24T11:55:29.819Z,100659.50
2022-12-24T11:58:05.734Z,100658.53
2022-12-24T12:00:33.329Z,100661.09
2022-12-24T12:03:03.268Z,100658.38
2022-12-24T12:05:35.296Z,100650.56
2022-12-24T12:08:18.990Z,100656.75
2022-12-24T12:10:49.555Z,100644.34
2022-12-24T12:13:27.370Z,100652.91
2022-12-24T12:16:16.527Z,100653.03
2022-12-24T12:18:52.572Z,100662.41
2022-12-24T12:21:27.222Z,100663.41
2022-12-24T12:24:08.165Z,100660.94
2022-12-24T12:26:36.458Z,100659.44
2022-12-24T12:29:29.254Z,100665.72
2022-12-24T12:32:05.006Z,100669.13
2022-12-24T12:34:42.474Z,100666.66
2022-12-24T12:37:21.804Z,100676.16
2022-12-24T12:39:49.422Z,100676.38
2022-12-24T12:42:17.836Z,100680.50
2022-12-24T12:44:54.593Z,100677.94
2022-12-24T12:47:34.633Z,100681.50
2022-12-24T12:50:29.557Z,100682.47
2022-12-24T12:52:59.951Z,100684.28
2022-12-24T12:55:42.887Z,100697.72
2022-12-24T12:58:19.425Z,100687.28
2022-12-24T13:00:52.727Z,100694.94
2022-12-24T13:03:38.552Z,100693.91
2022-12-24T13:06:43.791Z,100697.50
2022-12-24T13:09:25.957Z,100694.19
2022-12-24T13:12:26.167Z,100690.75
2022-12-24T13:15:03.060Z,100685.72
2022-12-24T13:17:40.128Z,100685.88
2022-12-24T13:20:19.479Z,100683.53
2022-12-24T13:22:56.948Z,100691.44
2022-12-24T13:25:34.424Z,100682.78
2022-12-24T13:28:30.591Z,100683.63
2022-12-24T13:31:20.019Z,100684.72
2022-12-24T13:33:50.518Z,100686.44
2022-12-24T13:36:19.919Z,100680.44
2022-12-24T13:38:50.547Z,100690.81
2022-12-24T13:41:40.078Z,100691.78
2022-12-24T13:44:13.225Z,100705.72
2022-12-24T13:47:05.048Z,100705.69
2022-12-24T13:49:44.786Z,100701.94
2022-12-24T13:52:12.425Z,100709.59
2022-12-24T13:54:55.105Z,100712.34
2022-12-24T13:57:31.921Z,100724.44
2022-12-24T14:00:06.432Z,100724.13
2022-12-24T14:03:03.887Z,100720.56
2022-12-24T14:05:46.514Z,100723.91
2022-12-24T14:08:30.579Z,100732.00
2022-12-24T14:11:15.396Z,100738.97
2022-12-24T14:13:43.309Z,100729.16
2022-12-24T14:16:26.629Z,100729.16
2022-12-24T14:19:04.191Z,100725.69
2022-12-24T14:21:35.752Z,100729.16
2022-12-24T14:24:07.033Z,100728.06
2022-12-24T14:26:44.689Z,100733.25
2022-12-24T14:29:43.551Z,100726.38
2022-12-24T14:32:16.139Z,100717.88
2022-12-24T14:34:43.961Z,100730.06
2022-12-24T14:37:14.044Z,100730.94
2022-12-24T14:39:48.278Z,100732.78
2022-12-24T14:42:34.584Z,100732.91
2022-12-24T14:45:21.614Z,100733.88
2022-12-24T14:48:15.665Z,100733.03
2022-12-24T14:51:04.860Z,100726.84
2022-12-24T14:53:43.109Z,100732.22
2022-12-24T14:56:16.393Z,100729.59
2022-12-24T14:58:45.798Z,100729.59
2022-12-24T15:01:30.610Z,100734.94
2022-12-24T15:04:04.423Z,100728.69
2022-12-24T15:06:37.155Z,100725.13
2022-12-24T15:09:05.379Z,100728.59
2022-12-24T15:11:33.202Z,100723.59
2022-12-24T15:14:00.892Z,100727.75
2022-12-24T15:16:32.133Z,100726.19
2022-12-24T15:19:04.170Z,100722.69
2022-12-24T15:21:41.323Z,100730.75
2022-12-24T15:24:32.430Z,100729.09
2022-12-24T15:27:06.646Z,100726.63
2022-12-24T15:29:42.971Z,100731.88
2022-12-24T15:32:14.309Z,100729.25
2022-12-24T15:34:49.930Z,100736.28
2022-12-24T15:37:22.760Z,100743.41
2022-12-24T15:40:04.590Z,100743.34
2022-12-24T15:42:34.188Z,100746.84
2022-12-24T15:45:04.541Z,100753.91
2022-12-24T15:47:39.730Z,100755.78
2022-12-24T15:50:16.316Z,100755.88
2022-12-24T15:52:44.759Z,100758.72
2022-12-24T15:55:41.792Z,100769.28
2022-12-24T15:58:30.859Z,100780.00
2022-12-24T16:01:03.507Z,100779.09
2022-12-24T16:03:33.245Z,100776.72
2022-12-24T16:06:08.769Z,100776.59
2022-12-24T16:08:41.882Z,100783.41
2022-12-24T16:11:12.656Z,100791.31
2022-12-24T16:13:51.539Z,100788.59
2022-12-24T16:16:22.274Z,100788.53
2022-12-24T16:18:57.079Z,100787.94
2022-12-24T16:21:30.305Z,100794.16
2022-12-24T16:24:22.942Z,100790.81
2022-12-24T16:26:51.244Z,100789.19
2022-12-24T16:29:19.607Z,100791.75
2022-12-24T16:31:51.934Z,100778.44
2022-12-24T16:34:23.564Z,100791.69
2022-12-24T16:36:51.223Z,100791.81
2022-12-24T16:39:24.840Z,100781.44
2022-12-24T16:42:17.268Z,100790.19
2022-12-24T16:44:45.799Z,100787.50
2022-12-24T16:47:27.501Z,100785.47
2022-12-24T16:49:56.688Z,100782.97
2022-12-24T16:52:29.281Z,100780.66
2022-12-24T16:54:57.731Z,100793.44
2022-12-24T16:57:26.573Z,100791.03
2022-12-24T16:59:54.831Z,100789.47
2022-12-24T17:02:25.190Z,100783.22
2022-12-24T17:04:53.010Z,100786.75
2022-12-24T17:07:21.789Z,100794.66
2022-12-24T17:09:49.420Z,100788.28
2022-12-24T17:12:16.992Z,100790.63
2022-12-24T17:14:44.969Z,100790.34
2022-12-24T17:17:25.007Z,100788.41
2022-12-24T17:19:52.777Z,100789.53
2022-12-24T17:22:20.615Z,100791.34
2022-12-24T17:24:48.420Z,100801.25
2022-12-24T17:27:16.494Z,100798.69
2022-12-24T17:29:44.259Z,100790.81
2022-12-24T17:32:12.989Z,100802.47
2022-12-24T17:34:40.858Z,100809.56
2022-12-24T17:37:08.403Z,100801.81
2022-12-24T17:39:36.203Z,100805.34
2022-12-24T17:42:04.304Z,100799.19
2022-12-24T17:44:32.102Z,100798.16
2022-12-24T17:46:59.980Z,100802.84
2022-12-24T17:49:28.085Z,100797.66
2022-12-24T17:51:55.698Z,100807.13
2022-12-24T17:54:23.679Z,100801.09
2022-12-24T17:56:51.167Z,100808.78
2022-12-24T17:59:18.814Z,100802.59
2022-12-24T18:01:46.406Z,100800.00
2022-12-24T18:04:14.161Z,100799.66
2022-12-24T18:06:47.164Z,100802.66
2022-12-24T18:09:17.054Z,100805.47
2022-12-24T18:11:44.778Z,100810.25
2022-12-24T18:14:14.293Z,100807.56
2022-12-24T18:16:42.149Z,100821.28
2022-12-24T18:19:12.603Z,100816.22
2022-12-24T18:21:40.653Z,100810.19
2022-12-24T18:24:09.362Z,100818.78
2022-12-24T18:26:36.903Z,100815.41
2022-12-24T18:29:05.054Z,100814.44
2022-12-24T18:31:34.164Z,100811.78
2022-12-24T18:34:04.439Z,100815.91
2022-12-24T18:36:33.160Z,100813.91
2022-12-24T18:39:01.070Z,100819.91
2022-12-24T18:41:30.825Z,100815.53
2022-12-24T18:43:59.556Z,100819.16
2022-12-24T18:46:30.363Z,100815.13
2022-12-24T18:49:00.337Z,100808.91
2022-12-24T18:51:31.597Z,100816.94
2022-12-24T18:53:59.233Z,100819.41
2022-12-24T18:56:27.110Z,100819.97
2022-12-24T18:58:56.647Z,100808.97
2022-12-24T19:01:32.129Z,100815.56
2022-12-24T19:04:00.007Z,100813.91
2022-12-24T19:06:29.727Z,100815.78
2022-12-24T19:08:59.646Z,100823.00
2022-12-24T19:11:29.834Z,100818.88
2022-12-24T19:14:00.291Z,100819.06
2022-12-24T19:16:29.842Z,100820.72
2022-12-24T19:18:57.807Z,100832.03
2022-12-24T19:21:25.907Z,100829.59
2022-12-24T19:23:53.717Z,100832.44
2022-12-24T19:26:22.138Z,100837.41
2022-12-24T19:28:51.148Z,100833.22
2022-12-24T19:31:25.026Z,100838.72
2022-12-24T19:33:55.830Z,100840.47
2022-12-24T19:36:27.663Z,100847.56
2022-12-24T19:38:56.609Z,100842.03
2022-12-24T19:41:27.501Z,100842.31
2022-12-24T19:43:58.046Z,100838.03
2022-12-24T19:46:33.480Z,100850.34
2022-12-24T19:49:05.288Z,100844.09
2022-12-24T19:51:35.561Z,100849.25
2022-12-24T19:54:04.622Z,100845.63
2022-12-24T19:56:33.464Z,100848.91
2022-12-24T19:59:02.597Z,100845.78
2022-12-24T20:01:33.237Z,100851.47
2022-12-24T20:04:02.154Z,100857.69
2022-12-24T20:06:34.102Z,100856.09
2022-12-24T20:09:08.388Z,100855.00
2022-12-24T20:11:36.330Z,100857.63
2022-12-24T20:14:06.030Z,100853.13
2022-12-24T20:16:35.469Z,100847.81
2022-12-24T20:19:06.677Z,100850.19
2022-12-24T20:21:35.374Z,100856.22
2022-12-24T20:24:03.191Z,100848.72
2022-12-24T20:26:30.932Z,100851.41
2022-12-24T20:29:02.668Z,100847.34
2022-12-24T20:31:31.086Z,100848.59
2022-12-24T20:34:01.423Z,100851.03
2022-12-24T20:36:30.037Z,100850.75
2022-12-24T20:38:58.875Z,100843.06
2022-12-24T20:41:31.342Z,100843.63
2022-12-24T20:44:00.923Z,100850.78
2022-12-24T20:46:28.920Z,100846.41
2022-12-24T20:48:58.377Z,100842.94
2022-12-24T20:51:28.642Z,100842.44
2022-12-24T20:53:57.649Z,100853.06
2022-12-24T20:56:25.874Z,100848.78
2022-12-24T20:58:53.996Z,100846.47
2022-12-24T21:01:24.789Z,100845.81
2022-12-24T21:03:54.873Z,100847.19
2022-12-24T21:06:24.479Z,100839.09
2022-12-24T21:08:52.540Z,100839.97
2022-12-24T21:11:39.159Z,100836.94
2022-12-24T21:14:06.900Z,100832.19
2022-12-24T21:16:39.215Z,100833.28
2022-12-24T21:19:07.979Z,100835.97
2022-12-24T21:21:36.527Z,100835.09
2022-12-24T21:24:04.824Z,100840.09
2022-12-24T21:26:33.472Z,100841.06
2022-12-24T21:29:01.610Z,100842.75
2022-12-24T21:31:29.500Z,100840.22
2022-12-24T21:33:57.976Z,100840.75
2022-12-24T21:36:25.594Z,100840.09
2022-12-24T21:38:54.721Z,100848.59
2022-12-24T21:41:26.159Z,100842.38
2022-12-24T21:43:53.889Z,100847.44
2022-12-24T21:46:25.240Z,100845.97
2022-12-24T21:49:13.363Z,100846.88
2022-12-24T21:51:41.696Z,100837.13
2022-12-24T21:54:25.389Z,100836.09
2022-12-24T21:57:14.284Z,100836.22
2022-12-24T21:59:42.967Z,100840.38
2022-12-24T22:02:15.882Z,100833.91
2022-12-24T22:04:43.784Z,100844.41
2022-12-24T22:07:44.210Z,100846.28
2022-12-24T22:10:31.982Z,100835.13
2022-12-24T22:13:00.920Z,100851.22
2022-12-24T22:15:28.499Z,100847.53
2022-12-24T22:17:56.162Z,100845.63
2022-12-24T22:20:24.184Z,100852.75
2022-12-24T22:22:52.138Z,100851.59
2022-12-24T22:25:19.707Z,100851.50
2022-12-24T22:27:47.303Z,100860.09
2022-12-24T22:30:14.842Z,100857.44
2022-12-24T22:32:43.515Z,100856.00
2022-12-24T22:35:11.503Z,100862.13
2022-12-24T22:37:39.257Z,100863.19
2022-12-24T22:40:08.144Z,100868.59
2022-12-24T22:42:35.872Z,100870.38
2022-12-24T22:45:03.958Z,100861.81
2022-12-24T22:47:32.995Z,100877.16
2022-12-24T22:50:00.575Z,100874.50
2022-12-24T22:52:35.448Z,100887.22
2022-12-24T22:55:04.301Z,100881.97
2022-12-24T22:57:32.039Z,100888.88
2022-12-24T22:59:59.771Z,100887.16
2022-12-24T23:02:28.737Z,100891.56
2022-12-24T23:04:56.609Z,100898.56
2022-12-24T23:07:24.844Z,100891.84
2022-12-24T23:09:52.368Z,100890.00
2022-12-24T23:12:39.842Z,100889.22
2022-12-24T23:15:08.497Z,100889.38
2022-12-24T23:17:36.236Z,100887.50
2022-12-24T23:20:04.097Z,100893.59
2022-12-24T23:22:32.153Z,100889.88
2022-12-24T23:24:59.683Z,100887.03
2022-12-24T23:27:31.319Z,100893.91
2022-12-24T23:29:59.055Z,100886.66
2022-12-24T23:32:26.672Z,100889.66
2022-12-24T23:34:54.285Z,100886.25
2022-12-24T23:37:21.880Z,100886.84
2022-12-24T23:39:52.049Z,100885.06
2022-12-24T23:42:19.723Z,100884.28
2022-12-24T23:44:48.374Z,100884.53
2022-12-24T23:47:15.865Z,100894.16
2022-12-24T23:49:43.597Z,100899.47
2022-12-24T23:52:11.318Z,100903.22
2022-12-24T23:54:39.201Z,100903.97
2022-12-24T23:57:06.750Z,100902.28
2022-12-24T23:59:34.453Z,100911.63
